Time;durP1;ratioP1;P1;durP2;ratioP2;P2;SDS_P1;SDS_P2;PMS_P1;PMS_P2;Temp;Humidity;BMP_temperature;BMP_pressure;BME280_temperature;BME280_humidity;BME280_pressure;Samples;Min_cycle;Max_cycle;Signal;HPM_P1;HPM_P2
2021/08/17 00:00:13;;;;;;;;;;;15.60;86.10;;;15.06;75.38;100645.00;5009755;28;19961;-65
2021/08/17 00:02:41;;;;;;;;;;;15.60;86.20;;;15.03;75.38;100635.28;4992142;28;20035;-65
2021/08/17 00:05:09;;;;;;;;;;;15.60;86.00;;;15.06;74.94;100645.00;5009476;28;19936;-64
2021/08/17 00:07:36;;;;;;;;;;;15.60;85.90;;;15.05;75.20;100640.56;5009671;28;19976;-64
2021/08/17 00:10:04;;;;;;;;;;;15.50;86.10;;;15.07;75.41;100632.13;5009569;28;20703;-67
2021/08/17 00:12:32;;;;;;;;;;;15.60;86.40;;;15.03;75.34;100628.97;5009729;28;19952;-66
2021/08/17 00:14:59;;;;;;;;;;;15.60;86.10;;;15.00;75.73;100630.25;5009580;28;19976;-67
2021/08/17 00:17:26;;;;;;;;;;;15.50;86.40;;;14.96;75.81;100639.91;5009626;28;20413;-68
2021/08/17 00:19:53;;;;;;;;;;;15.50;86.80;;;14.98;75.57;100639.72;5009388;28;19984;-67
2021/08/17 00:22:22;;;;;;;;;;;15.50;86.70;;;14.96;75.99;100628.13;5008284;28;19929;-67
2021/08/17 00:24:50;;;;;;;;;;;15.50;86.90;;;14.93;75.96;100628.56;5009302;28;19930;-68
2021/08/17 00:27:17;;;;;;;;;;;15.40;86.90;;;14.88;75.99;100631.06;5009371;28;19934;-68
2021/08/17 00:29:47;;;;;;;;;;;15.40;87.20;;;14.86;76.13;100639.50;5009258;28;19952;-63
2021/08/17 00:32:14;;;;;;;;;;;15.40;87.10;;;14.90;76.08;100635.28;5009149;28;19968;-65
2021/08/17 00:34:41;;;;;;;;;;;15.40;86.90;;;14.82;75.69;100639.06;4991925;28;19983;-63
2021/08/17 00:37:08;;;;;;;;;;;15.30;87.10;;;14.70;76.55;100628.94;5009209;28;19948;-64
2021/08/17 00:39:37;;;;;;;;;;;15.30;87.40;;;14.68;76.95;100636.53;5009147;28;19992;-65
2021/08/17 00:42:08;;;;;;;;;;;15.30;87.70;;;14.73;76.73;100634.84;5008976;28;19930;-64
2021/08/17 00:44:35;;;;;;;;;;;15.20;87.80;;;14.73;77.01;100637.59;5009001;28;19929;-65
2021/08/17 00:47:04;;;;;;;;;;;15.20;87.90;;;14.68;77.55;100631.91;5008859;28;19935;-65
2021/08/17 00:49:32;;;;;;;;;;;15.20;88.10;;;14.67;77.24;100635.69;5008957;28;20800;-62
2021/08/17 00:52:00;;;;;;;;;;;15.10;88.10;;;14.65;77.43;100640.53;5006389;28;19957;-66
2021/08/17 00:54:28;;;;;;;;;;;15.10;88.40;;;14.71;77.30;100636.94;4992674;28;20387;-66
2021/08/17 00:56:57;;;;;;;;;;;15.10;88.30;;;14.68;77.35;100631.91;5006518;23;19929;-69
2021/08/17 00:59:24;;;;;;;;;;;15.00;88.40;;;14.69;77.50;100636.31;4992205;28;19965;-70
2021/08/17 01:01:52;;;;;;;;;;;15.00;88.90;;;14.70;77.42;100640.75;5002458;28;19930;-71
2021/08/17 01:04:20;;;;;;;;;;;15.00;88.80;;;14.68;77.52;100639.25;4991231;28;19930;-70
2021/08/17 01:06:47;;;;;;;;;;;14.90;89.10;;;14.75;77.42;100646.44;5001761;28;19979;-69
2021/08/17 01:09:14;;;;;;;;;;;14.90;89.30;;;14.69;77.32;100644.53;4941109;28;20052;-71
2021/08/17 01:11:46;;;;;;;;;;;14.90;89.30;;;14.73;77.44;100634.00;4991660;28;19973;-69
2021/08/17 01:14:13;;;;;;;;;;;14.80;89.40;;;14.74;77.34;100642.03;5001086;28;20283;-70
2021/08/17 01:16:41;;;;;;;;;;;14.80;89.50;;;14.70;77.35;100634.41;4993247;28;19933;-70
2021/08/17 01:19:08;;;;;;;;;;;14.80;89.50;;;14.58;77.73;100645.16;4976151;28;19934;-69
2021/08/17 01:21:36;;;;;;;;;;;14.70;89.70;;;14.62;77.59;100640.94;4993807;28;20379;-70
2021/08/17 01:24:04;;;;;;;;;;;14.70;90.00;;;14.62;77.53;100644.53;4999932;28;20495;-69
2021/08/17 01:26:33;;;;;;;;;;;14.70;90.10;;;14.54;77.89;100641.09;4993197;28;20437;-70
2021/08/17 01:29:00;;;;;;;;;;;14.60;90.00;;;14.54;77.78;100646.59;4998562;28;19996;-70
2021/08/17 01:31:27;;;;;;;;;;;14.60;90.30;;;14.53;77.83;100647.66;4999929;28;20652;-69
2021/08/17 01:33:54;;;;;;;;;;;14.60;90.30;;;14.53;78.19;100644.91;5000329;28;19930;-70
2021/08/17 01:36:21;;;;;;;;;;;14.60;90.40;;;14.54;77.82;100647.41;4999895;28;20310;-69
2021/08/17 01:38:48;;;;;;;;;;;14.60;90.30;;;14.42;78.40;100649.94;4992935;28;19930;-70
2021/08/17 01:41:16;;;;;;;;;;;14.50;90.60;;;14.46;78.28;100644.88;4982679;28;19976;-71
2021/08/17 01:43:45;;;;;;;;;;;14.50;90.80;;;14.49;78.23;100652.69;4992615;28;20036;-69
2021/08/17 01:46:12;;;;;;;;;;;14.50;90.80;;;14.41;78.08;100655.59;4980569;28;20692;-70
2021/08/17 01:48:40;;;;;;;;;;;14.50;90.90;;;14.44;78.23;100661.53;4992876;28;20453;-72
2021/08/17 01:51:07;;;;;;;;;;;14.40;90.80;;;14.39;78.46;100660.44;4999529;28;19930;-70
2021/08/17 01:53:35;;;;;;;;;;;14.40;91.00;;;14.40;78.67;100656.66;4995740;28;20015;-72
2021/08/17 01:56:06;;;;;;;;;;;14.40;91.30;;;14.39;78.52;100650.38;4998978;28;20027;-69
2021/08/17 01:58:33;;;;;;;;;;;14.40;91.20;;;14.37;78.88;100646.97;4993210;28;20390;-69
2021/08/17 02:01:02;;;;;;;;;;;14.40;91.40;;;14.33;78.84;100653.06;4942532;28;20326;-69
2021/08/17 02:03:29;;;;;;;;;;;14.40;91.40;;;14.30;79.40;100651.59;4999089;28;19930;-69
2021/08/17 02:05:56;;;;;;;;;;;14.40;91.70;;;14.32;79.09;100649.50;4998527;28;20574;-69
2021/08/17 02:08:23;;;;;;;;;;;14.40;91.70;;;14.36;79.26;100650.75;4998202;28;20470;-71
2021/08/17 02:10:50;;;;;;;;;;;14.40;91.90;;;14.35;79.13;100654.53;4993395;28;19957;-70
2021/08/17 02:13:18;;;;;;;;;;;14.30;91.80;;;14.33;79.35;100655.81;4993887;28;20047;-70
2021/08/17 02:15:45;;;;;;;;;;;14.30;92.00;;;14.33;79.31;100656.63;4998648;28;20048;-73
2021/08/17 02:18:14;;;;;;;;;;;14.30;92.00;;;14.31;79.43;100658.75;4992219;28;19993;-71
2021/08/17 02:20:41;;;;;;;;;;;14.30;92.20;;;14.32;79.71;100656.84;4993290;28;19937;-71
2021/08/17 02:23:09;;;;;;;;;;;14.30;92.40;;;14.32;79.69;100659.56;4993068;28;19984;-69
2021/08/17 02:25:36;;;;;;;;;;;14.30;92.40;;;14.31;79.76;100658.75;4998448;28;19930;-70
2021/08/17 02:28:03;;;;;;;;;;;14.30;92.40;;;14.33;79.61;100655.81;4992702;28;19992;-70
2021/08/17 02:30:30;;;;;;;;;;;14.20;92.60;;;14.30;79.96;100661.69;4998328;28;20041;-71
2021/08/17 02:32:57;;;;;;;;;;;14.20;92.60;;;14.30;79.80;100662.53;4993562;28;19964;-69
2021/08/17 02:35:26;;;;;;;;;;;14.20;92.80;;;14.27;80.23;100668.41;4993386;28;19936;-69
2021/08/17 02:37:53;;;;;;;;;;;14.30;93.00;;;14.29;80.40;100669.06;4993197;28;20383;-70
2021/08/17 02:40:20;;;;;;;;;;;14.30;93.10;;;14.27;80.44;100679.38;4993075;28;19930;-70
2021/08/17 02:42:47;;;;;;;;;;;14.20;93.20;;;14.27;80.55;100673.91;4998167;28;19929;-69
2021/08/17 02:45:14;;;;;;;;;;;14.20;93.20;;;14.26;80.56;100673.06;4996142;28;19973;-72
2021/08/17 02:47:41;;;;;;;;;;;14.20;93.20;;;14.27;80.35;100679.38;4996987;28;20024;-70
2021/08/17 02:50:09;;;;;;;;;;;14.20;93.30;;;14.23;80.65;100678.09;5001516;28;20760;-71
2021/08/17 02:52:38;;;;;;;;;;;14.20;93.50;;;14.26;81.06;100672.22;4997620;28;19944;-72
2021/08/17 02:55:07;;;;;;;;;;;14.30;93.90;;;14.23;81.84;100667.97;4997008;28;19957;-70
2021/08/17 02:57:34;;;;;;;;;;;14.30;94.10;;;14.23;81.80;100678.94;5000962;28;19969;-70
2021/08/17 03:00:01;;;;;;;;;;;14.30;94.20;;;14.20;82.79;100667.53;4997590;28;19965;-70
2021/08/17 03:02:28;;;;;;;;;;;14.30;94.50;;;14.09;83.65;100671.72;5001745;28;19975;-70
2021/08/17 03:04:55;;;;;;;;;;;14.40;94.60;;;14.06;84.45;100667.50;5001738;28;19968;-71
2021/08/17 03:07:22;;;;;;;;;;;14.40;94.80;;;14.06;84.59;100669.38;5001209;28;19972;-69
2021/08/17 03:09:50;;;;;;;;;;;14.40;94.80;;;14.08;84.73;100670.88;4997379;28;19984;-72
2021/08/17 03:12:17;;;;;;;;;;;14.40;94.80;;;14.14;84.27;100668.38;4984286;28;19932;-71
2021/08/17 03:14:44;;;;;;;;;;;14.50;94.90;;;14.17;84.59;100678.91;4996449;28;20023;-70
2021/08/17 03:17:12;;;;;;;;;;;14.50;95.10;;;14.21;84.39;100671.97;5001744;28;20026;-71
2021/08/17 03:19:39;;;;;;;;;;;14.50;95.00;;;14.17;84.38;100678.91;5002126;28;19960;-70
2021/08/17 03:22:08;;;;;;;;;;;14.50;94.90;;;14.20;84.81;100679.34;5002259;28;19991;-70
2021/08/17 03:24:35;;;;;;;;;;;14.50;95.10;;;14.20;84.56;100665.66;5001026;28;20020;-69
2021/08/17 03:27:04;;;;;;;;;;;14.50;95.20;;;14.23;84.48;100672.63;4994893;28;19969;-72
2021/08/17 03:29:31;;;;;;;;;;;14.50;95.20;;;14.26;84.07;100664.84;4998730;28;20047;-70
2021/08/17 03:31:58;;;;;;;;;;;14.50;95.10;;;14.21;84.37;100675.56;4984726;28;20020;-70
2021/08/17 03:34:25;;;;;;;;;;;14.50;95.20;;;14.20;84.68;100670.28;5002199;28;20355;-69
2021/08/17 03:36:52;;;;;;;;;;;14.50;95.40;;;14.22;84.75;100665.44;4994761;28;19984;-70
2021/08/17 03:39:19;;;;;;;;;;;14.50;95.50;;;14.24;84.85;100668.81;4995424;28;19929;-69
2021/08/17 03:41:46;;;;;;;;;;;14.50;95.60;;;14.24;84.44;100666.94;4995497;28;19941;-70
2021/08/17 03:44:14;;;;;;;;;;;14.50;95.40;;;14.27;84.38;100669.25;5000928;28;19972;-70
2021/08/17 03:46:41;;;;;;;;;;;14.50;95.30;;;14.26;84.28;100666.75;4995047;28;20410;-70
2021/08/17 03:49:09;;;;;;;;;;;14.50;95.20;;;14.24;84.50;100663.34;5001873;28;19938;-72
2021/08/17 03:51:36;;;;;;;;;;;14.50;95.30;;;14.24;85.10;100666.06;4981198;28;19975;-72
2021/08/17 03:54:03;;;;;;;;;;;14.50;95.50;;;14.24;84.98;100666.06;5001116;28;20012;-69
2021/08/17 03:56:30;;;;;;;;;;;14.50;95.40;;;14.27;85.04;100668.41;4999648;28;19956;-69
2021/08/17 03:58:57;;;;;;;;;;;14.60;95.60;;;14.28;84.80;100672.84;5002015;28;19929;-69
2021/08/17 04:01:25;;;;;;;;;;;14.60;95.50;;;14.28;85.17;100673.69;4984442;28;19930;-70
2021/08/17 04:03:52;;;;;;;;;;;14.60;95.50;;;14.29;85.07;100671.78;4994582;28;19988;-70
2021/08/17 04:06:19;;;;;;;;;;;14.60;95.50;;;14.25;85.72;100665.03;4984066;28;20085;-70
2021/08/17 04:08:48;;;;;;;;;;;14.60;95.60;;;14.29;85.49;100666.31;4994343;28;19973;-71
2021/08/17 04:11:15;;;;;;;;;;;14.60;95.60;;;14.29;85.31;100669.06;5002298;28;20052;-69
2021/08/17 04:13:42;;;;;;;;;;;14.60;95.60;;;14.31;85.29;100669.69;4994125;28;20028;-72
2021/08/17 04:16:09;;;;;;;;;;;14.60;95.60;;;14.37;85.19;100668.03;4992040;28;20023;-69
2021/08/17 04:18:37;;;;;;;;;;;14.60;95.70;;;14.34;85.48;100663.81;5002087;28;19933;-70
2021/08/17 04:21:04;;;;;;;;;;;14.70;95.80;;;14.29;85.80;100677.28;4993652;28;20347;-69
2021/08/17 04:23:31;;;;;;;;;;;14.70;95.70;;;14.29;85.91;100666.31;5000003;28;20405;-71
2021/08/17 04:25:59;;;;;;;;;;;14.70;95.70;;;14.33;85.33;100667.59;4993478;28;20347;-70
2021/08/17 04:28:27;;;;;;;;;;;14.70;95.70;;;14.36;85.39;100669.94;4993838;28;20041;-69
2021/08/17 04:30:54;;;;;;;;;;;14.70;95.60;;;14.40;85.20;100676.69;4994268;28;19930;-71
2021/08/17 04:33:21;;;;;;;;;;;14.70;95.50;;;14.38;85.46;100673.31;4993831;28;20032;-71
2021/08/17 04:35:50;;;;;;;;;;;14.70;95.40;;;14.38;85.41;100676.03;5000820;28;20036;-71
2021/08/17 04:38:17;;;;;;;;;;;14.80;95.40;;;14.41;85.57;100686.59;5000865;28;19930;-71
2021/08/17 04:40:44;;;;;;;;;;;14.80;95.50;;;14.46;85.65;100696.91;5001414;28;19926;-70
2021/08/17 04:43:11;;;;;;;;;;;14.80;95.40;;;14.50;85.52;100689.97;4993835;28;19961;-71
2021/08/17 04:45:39;;;;;;;;;;;14.90;95.50;;;14.44;85.69;100691.63;5000936;28;20714;-71
2021/08/17 04:48:06;;;;;;;;;;;14.90;95.30;;;14.44;86.05;100691.63;4942985;28;19936;-70
2021/08/17 04:50:33;;;;;;;;;;;15.00;95.20;;;14.44;86.31;100699.84;4994465;28;19965;-71
2021/08/17 04:53:01;;;;;;;;;;;15.00;95.40;;;14.40;86.43;100706.78;5000250;28;19973;-70
2021/08/17 04:55:28;;;;;;;;;;;14.90;95.40;;;14.44;86.02;100699.84;4994519;28;19926;-71
2021/08/17 04:57:57;;;;;;;;;;;15.00;95.20;;;14.44;86.25;100697.13;4999658;28;19930;-71
2021/08/17 05:00:25;;;;;;;;;;;15.00;95.00;;;14.52;86.11;100700.72;4994360;28;20588;-71
2021/08/17 05:02:52;;;;;;;;;;;15.10;95.00;;;14.54;85.69;100709.56;4994413;28;19937;-70
2021/08/17 05:05:20;;;;;;;;;;;15.10;94.70;;;14.52;86.32;100700.72;4994296;28;19929;-70
2021/08/17 05:07:48;;;;;;;;;;;15.10;94.50;;;14.52;86.13;100703.47;4994601;28;19930;-70
2021/08/17 05:10:19;;;;;;;;;;;15.20;94.30;;;14.56;86.28;100705.56;4997729;28;20406;-71
2021/08/17 05:12:47;;;;;;;;;;;15.20;94.50;;;14.55;86.33;100712.13;4998846;28;19930;-70
2021/08/17 05:15:14;;;;;;;;;;;15.20;94.70;;;14.57;86.43;100701.00;4995748;28;19926;-70
2021/08/17 05:17:42;;;;;;;;;;;15.30;94.40;;;14.54;86.86;100702.19;4996772;28;19965;-70
2021/08/17 05:20:11;;;;;;;;;;;15.30;94.10;;;14.57;86.93;100709.22;4993011;28;19965;-71
2021/08/17 05:22:38;;;;;;;;;;;15.30;94.20;;;14.58;87.09;100700.78;4996828;28;19992;-71
2021/08/17 05:25:06;;;;;;;;;;;15.40;94.10;;;14.62;87.46;100698.47;4993562;28;19937;-72
2021/08/17 05:27:34;;;;;;;;;;;15.50;94.00;;;14.64;87.44;100701.84;4996988;28;19961;-71
2021/08/17 05:30:02;;;;;;;;;;;15.60;93.50;;;14.66;87.11;100700.59;4993885;28;19933;-71
2021/08/17 05:32:29;;;;;;;;;;;15.60;93.30;;;14.70;87.00;100701.03;4996610;28;19930;-70
2021/08/17 05:34:56;;;;;;;;;;;15.60;93.50;;;14.72;87.10;100698.91;4994832;28;19973;-71
2021/08/17 05:37:23;;;;;;;;;;;15.60;93.70;;;14.66;87.57;100700.59;4996000;28;19929;-70
2021/08/17 05:39:50;;;;;;;;;;;15.50;93.90;;;14.70;87.54;100701.03;4993026;28;19979;-71
2021/08/17 05:42:17;;;;;;;;;;;15.50;94.30;;;14.68;87.93;100703.13;4996388;28;19929;-70
2021/08/17 05:44:46;;;;;;;;;;;15.50;94.40;;;14.69;87.65;100702.06;4995729;28;20020;-71
2021/08/17 05:47:14;;;;;;;;;;;15.50;94.70;;;14.70;87.83;100706.50;4998107;28;19969;-71
2021/08/17 05:49:41;;;;;;;;;;;15.40;94.60;;;14.68;87.91;100700.41;4992694;28;19976;-70
2021/08/17 05:52:10;;;;;;;;;;;15.40;94.80;;;14.67;88.21;100706.91;4999041;28;19936;-71
2021/08/17 05:54:37;;;;;;;;;;;15.50;94.80;;;14.71;88.46;100702.69;4993060;28;19930;-71
2021/08/17 05:57:06;;;;;;;;;;;15.60;94.50;;;14.74;88.84;100707.78;4998926;28;19932;-71
2021/08/17 05:59:33;;;;;;;;;;;15.80;94.50;;;14.74;88.80;100712.41;4993159;28;20379;-71
2021/08/17 06:02:03;;;;;;;;;;;15.80;93.80;;;14.82;88.53;100714.97;4999459;28;19975;-71
2021/08/17 06:04:31;;;;;;;;;;;16.00;93.40;;;14.90;88.79;100708.44;4993307;28;19981;-71
2021/08/17 06:06:58;;;;;;;;;;;16.10;93.20;;;14.92;89.03;100701.69;4992255;28;19992;-72
2021/08/17 06:09:25;;;;;;;;;;;16.10;93.10;;;14.89;88.84;100704.00;4998212;28;20024;-72
2021/08/17 06:11:56;;;;;;;;;;;16.10;93.10;;;14.89;88.87;100704.00;4992719;28;19930;-71
2021/08/17 06:14:24;;;;;;;;;;;16.00;93.30;;;14.86;89.36;100711.56;4993321;28;19936;-71
2021/08/17 06:16:51;;;;;;;;;;;16.00;93.70;;;14.86;89.25;100719.81;4998018;28;19929;-71
2021/08/17 06:19:20;;;;;;;;;;;16.00;94.00;;;14.89;89.62;100717.69;4993752;28;20000;-72
2021/08/17 06:21:47;;;;;;;;;;;16.00;94.10;;;14.94;89.82;100717.91;4998084;28;20028;-71
2021/08/17 06:24:14;;;;;;;;;;;16.00;94.30;;;15.01;89.49;100729.75;4996768;28;20031;-71
2021/08/17 06:26:41;;;;;;;;;;;16.00;94.30;;;15.05;89.36;100725.53;4993339;28;19969;-71
2021/08/17 06:29:08;;;;;;;;;;;16.10;94.40;;;15.04;89.85;100699.16;4998794;28;19929;-72
2021/08/17 06:31:35;;;;;;;;;;;16.10;94.50;;;15.11;89.80;100697.28;4998762;28;20723;-71
2021/08/17 06:34:02;;;;;;;;;;;16.20;94.50;;;15.14;90.63;100701.50;4994647;28;20349;-71
2021/08/17 06:36:31;;;;;;;;;;;16.50;94.10;;;15.22;90.50;100704.88;4993062;28;19951;-71
2021/08/17 06:38:58;;;;;;;;;;;16.70;93.00;;;15.27;90.71;100689.69;4998319;28;19930;-71
2021/08/17 06:41:25;;;;;;;;;;;16.70;92.60;;;15.31;90.35;100688.22;4993487;28;20409;-71
2021/08/17 06:43:55;;;;;;;;;;;16.70;92.80;;;15.33;90.32;100700.66;4993034;28;19930;-72
2021/08/17 06:46:22;;;;;;;;;;;16.80;92.60;;;15.38;90.24;100697.28;4992993;28;20020;-71
2021/08/17 06:48:49;;;;;;;;;;;16.80;92.50;;;15.39;90.33;100698.97;4998276;28;19979;-71
2021/08/17 06:51:16;;;;;;;;;;;16.80;92.80;;;15.42;90.54;100704.00;4992750;28;19929;-71
2021/08/17 06:53:45;;;;;;;;;;;16.80;92.80;;;15.44;90.52;100713.75;4992748;28;19930;-71
2021/08/17 06:56:12;;;;;;;;;;;16.90;92.70;;;15.46;90.63;100710.78;5007146;23;19996;-64
2021/08/17 06:58:39;;;;;;;;;;;17.00;92.50;;;15.52;90.42;100709.09;4997189;28;19929;-63
2021/08/17 07:01:06;;;;;;;;;;;17.00;92.50;;;15.51;90.44;100713.72;4998206;28;20024;-66
2021/08/17 07:03:33;;;;;;;;;;;17.00;92.50;;;15.52;90.53;100704.44;4996465;28;19934;-64
2021/08/17 07:06:00;;;;;;;;;;;17.00;92.60;;;15.56;91.56;100702.97;4996219;28;19929;-65
2021/08/17 07:08:27;;;;;;;;;;;17.10;92.90;;;15.61;91.42;100707.78;4995704;28;19945;-65
2021/08/17 07:10:56;;;;;;;;;;;17.20;92.30;;;15.69;91.58;100709.47;4995586;28;20033;-65
2021/08/17 07:13:23;;;;;;;;;;;17.40;91.60;;;15.72;90.81;100714.53;4979109;28;20377;-65
2021/08/17 07:15:50;;;;;;;;;;;17.50;91.00;;;15.74;91.12;100713.28;4994412;28;20024;-63
2021/08/17 07:18:19;;;;;;;;;;;17.70;90.80;;;15.74;91.75;100709.72;4994737;28;20481;-64
2021/08/17 07:20:46;;;;;;;;;;;17.80;90.70;;;15.85;91.25;100708.22;4995896;28;19984;-65
2021/08/17 07:23:13;;;;;;;;;;;17.80;90.30;;;15.91;91.62;100708.19;4995829;28;19929;-64
2021/08/17 07:25:40;;;;;;;;;;;17.80;90.30;;;15.91;91.30;100707.34;4996152;28;19977;-65
2021/08/17 07:28:10;;;;;;;;;;;17.80;90.30;;;15.92;91.01;100698.91;4995828;28;20465;-66
2021/08/17 07:30:38;;;;;;;;;;;17.70;90.70;;;15.92;91.07;100698.91;4997125;28;20028;-65
2021/08/17 07:33:05;;;;;;;;;;;17.60;90.80;;;15.95;90.58;100692.13;5000152;28;19976;-64
2021/08/17 07:35:32;;;;;;;;;;;17.60;90.80;;;15.98;90.41;100698.03;5000776;28;20404;-65
2021/08/17 07:38:00;;;;;;;;;;;17.60;91.00;;;15.99;90.26;100688.75;5000140;28;19976;-65
2021/08/17 07:40:28;;;;;;;;;;;17.50;91.30;;;16.01;90.08;100692.13;5001151;28;20012;-65
2021/08/17 07:42:55;;;;;;;;;;;17.50;91.60;;;16.03;90.30;100698.25;4982179;28;19930;-65
2021/08/17 07:45:24;;;;;;;;;;;17.50;91.50;;;16.09;90.23;100695.69;4998003;28;19968;-65
2021/08/17 07:47:51;;;;;;;;;;;17.70;91.40;;;16.12;90.32;100704.31;5000088;28;19977;-65
2021/08/17 07:50:18;;;;;;;;;;;17.70;91.10;;;16.13;90.91;100706.03;4998703;28;19968;-65
2021/08/17 07:52:45;;;;;;;;;;;17.90;91.50;;;16.23;91.19;100700.06;5000368;28;19973;-64
2021/08/17 07:55:14;;;;;;;;;;;18.20;90.50;;;16.30;90.96;100705.56;5000138;28;19933;-65
2021/08/17 07:57:42;;;;;;;;;;;18.40;89.60;;;16.37;90.54;100709.94;4996427;28;20005;-65
2021/08/17 08:00:12;;;;;;;;;;;18.40;89.20;;;16.40;90.30;100709.50;4998118;28;20035;-65
2021/08/17 08:02:40;;;;;;;;;;;18.50;89.10;;;16.50;92.90;100699.94;5000804;28;19925;-65
2021/08/17 08:05:08;;;;;;;;;;;18.70;89.30;;;16.65;93.18;100691.41;4998695;28;19937;-65
2021/08/17 08:07:36;;;;;;;;;;;19.10;89.20;;;16.76;92.42;100694.31;4996017;28;20658;-65
2021/08/17 08:10:03;;;;;;;;;;;19.40;87.80;;;16.80;92.38;100684.53;4998983;28;19962;-65
2021/08/17 08:12:30;;;;;;;;;;;19.40;87.60;;;16.81;91.18;100683.50;4999455;28;19933;-64
2021/08/17 08:14:57;;;;;;;;;;;19.30;87.40;;;16.81;90.09;100685.38;4997522;28;20028;-66
2021/08/17 08:17:24;;;;;;;;;;;19.10;87.60;;;16.80;90.19;100683.72;4996727;28;20283;-64
2021/08/17 08:19:53;;;;;;;;;;;18.90;88.30;;;16.78;90.37;100675.69;4998120;28;20363;-65
2021/08/17 08:22:20;;;;;;;;;;;18.90;88.30;;;16.75;90.13;100684.38;4999241;28;19976;-66
2021/08/17 08:24:47;;;;;;;;;;;18.90;88.50;;;16.73;89.54;100677.41;4997715;28;20387;-65
2021/08/17 08:27:15;;;;;;;;;;;18.80;88.20;;;16.71;89.89;100677.63;4997562;28;19929;-65
2021/08/17 08:29:43;;;;;;;;;;;18.90;88.10;;;16.79;90.86;100677.38;4998692;28;20013;-66
2021/08/17 08:32:13;;;;;;;;;;;19.10;88.20;;;16.84;90.73;100678.66;4998867;28;19936;-66
2021/08/17 08:34:40;;;;;;;;;;;19.20;87.80;;;16.89;90.09;100684.31;4997345;28;19929;-65
2021/08/17 08:37:08;;;;;;;;;;;19.30;87.10;;;16.89;90.24;100698.91;4999368;28;19937;-65
2021/08/17 08:39:35;;;;;;;;;;;19.30;87.00;;;16.96;90.36;100704.34;4964355;28;19958;-64
2021/08/17 08:42:03;;;;;;;;;;;19.40;87.00;;;17.09;93.11;100693.25;4997620;28;20032;-65
2021/08/17 08:44:30;;;;;;;;;;;19.60;87.40;;;17.27;90.77;100695.22;4998915;28;19936;-64
2021/08/17 08:46:57;;;;;;;;;;;19.90;86.20;;;17.34;89.61;100697.91;4998587;28;20028;-65
2021/08/17 08:49:25;;;;;;;;;;;20.00;85.00;;;17.38;89.27;100710.16;4998022;28;19961;-64
2021/08/17 08:51:52;;;;;;;;;;;20.10;84.90;;;17.39;89.81;100714.59;4996863;28;19968;-65
2021/08/17 08:54:21;;;;;;;;;;;20.00;85.20;;;17.39;89.16;100712.69;4998717;28;19929;-63
2021/08/17 08:56:48;;;;;;;;;;;19.90;85.70;;;17.33;88.67;100713.59;4994402;28;19930;-64
2021/08/17 08:59:15;;;;;;;;;;;19.70;85.60;;;17.27;88.15;100710.88;4978597;28;19996;-64
2021/08/17 09:01:46;;;;;;;;;;;19.50;86.10;;;17.29;87.59;100700.53;4996361;28;20472;-63
2021/08/17 09:04:15;;;;;;;;;;;19.30;86.50;;;17.25;87.45;100700.13;4997804;28;19987;-65
2021/08/17 09:06:51;;;;;;;;;;;19.10;87.10;;;17.14;86.24;100700.84;4997035;28;20416;-65
2021/08/17 09:09:19;;;;;;;;;;;19.00;86.90;;;17.11;86.71;100702.13;4994805;28;19929;-64
2021/08/17 09:11:50;;;;;;;;;;;18.90;87.40;;;17.13;87.09;100699.16;4998551;28;20024;-63
2021/08/17 09:14:20;;;;;;;;;;;18.80;87.80;;;17.11;86.49;100688.38;4997600;28;19925;-64
2021/08/17 09:16:47;;;;;;;;;;;18.80;87.70;;;17.12;86.83;100683.72;4997683;28;19994;-64
2021/08/17 09:19:30;;;;;;;;;;;18.70;88.10;;;17.12;87.19;100692.81;4997252;28;19929;-65
2021/08/17 09:21:59;;;;;;;;;;;18.80;88.50;;;17.05;86.59;100686.50;4998911;28;19984;-64
2021/08/17 09:24:28;;;;;;;;;;;18.70;88.20;;;17.07;86.31;100700.03;4997864;28;20361;-64
2021/08/17 09:26:57;;;;;;;;;;;18.60;88.20;;;17.09;86.84;100700.66;4993756;28;20714;-64
2021/08/17 09:29:27;;;;;;;;;;;18.50;88.90;;;17.02;86.82;100714.47;4998213;28;19969;-64
2021/08/17 09:31:55;;;;;;;;;;;18.50;89.00;;;16.88;85.36;100707.38;4997936;28;20028;-65
2021/08/17 09:34:29;;;;;;;;;;;18.50;88.00;;;16.90;86.52;100706.06;4997835;28;19957;-65
2021/08/17 09:36:56;;;;;;;;;;;18.60;88.30;;;16.92;86.14;100697.59;4997253;28;19940;-64
2021/08/17 09:39:35;;;;;;;;;;;18.70;87.50;;;16.91;86.17;100682.19;4998511;28;20047;-64
2021/08/17 09:42:22;;;;;;;;;;;18.70;87.60;;;16.94;85.94;100679.81;4994660;28;20129;-65
2021/08/17 09:45:18;;;;;;;;;;;18.70;87.30;;;16.97;85.38;100681.28;4998231;28;19930;-65
2021/08/17 09:47:47;;;;;;;;;;;18.70;87.10;;;17.04;86.00;100689.47;4954024;28;19979;-65
2021/08/17 09:50:23;;;;;;;;;;;18.90;87.40;;;17.05;85.94;100686.50;4999547;28;19988;-65
2021/08/17 09:53:04;;;;;;;;;;;19.00;86.80;;;17.10;85.69;100688.59;4979118;28;19936;-64
2021/08/17 09:55:39;;;;;;;;;;;19.20;85.90;;;17.04;83.47;100690.34;4995193;28;19976;-65
2021/08/17 09:58:22;;;;;;;;;;;19.20;83.50;;;17.10;83.63;100697.69;4994535;28;20682;-65
2021/08/17 10:00:52;;;;;;;;;;;19.10;84.50;;;17.13;84.57;100688.97;4997297;28;20383;-64
2021/08/17 10:03:19;;;;;;;;;;;19.10;85.50;;;17.13;83.58;100688.97;4995666;28;19961;-64
2021/08/17 10:05:47;;;;;;;;;;;19.00;85.20;;;17.14;83.13;100685.19;4995469;28;19973;-65
2021/08/17 10:08:16;;;;;;;;;;;18.90;85.30;;;17.16;82.62;100693.22;4978706;28;19940;-63
2021/08/17 10:10:45;;;;;;;;;;;18.80;85.50;;;17.10;82.33;100699.63;4995430;28;20005;-64
2021/08/17 10:13:13;;;;;;;;;;;18.90;85.20;;;17.11;82.22;100696.63;4995042;28;20422;-64
2021/08/17 10:15:45;;;;;;;;;;;18.90;85.20;;;17.15;83.06;100697.00;4998079;28;19933;-66
2021/08/17 10:18:15;;;;;;;;;;;19.00;85.50;;;17.23;84.10;100702.25;4995637;28;20345;-65
2021/08/17 10:20:44;;;;;;;;;;;19.00;85.70;;;17.27;83.41;100700.75;4998405;28;19984;-65
2021/08/17 10:23:14;;;;;;;;;;;19.10;85.40;;;17.27;83.82;100699.88;4976456;28;19957;-64
2021/08/17 10:25:46;;;;;;;;;;;19.10;85.60;;;17.27;82.53;100699.88;4977499;28;19930;-64
2021/08/17 10:28:31;;;;;;;;;;;19.00;85.00;;;17.27;82.62;100703.50;4997520;28;19984;-64
2021/08/17 10:31:21;;;;;;;;;;;18.90;85.50;;;17.26;82.77;100698.22;4998796;28;19976;-65
2021/08/17 10:33:51;;;;;;;;;;;18.90;85.70;;;17.25;80.79;100691.00;4993451;28;20092;-63
2021/08/17 10:36:34;;;;;;;;;;;19.00;85.10;;;17.30;82.04;100677.44;4996980;28;19937;-65
2021/08/17 10:39:04;;;;;;;;;;;19.20;84.50;;;17.33;81.92;100669.56;4997189;28;19937;-65
2021/08/17 10:41:35;;;;;;;;;;;19.30;83.80;;;17.29;82.17;100659.25;4998862;28;19937;-66
2021/08/17 10:44:18;;;;;;;;;;;19.40;83.10;;;17.25;80.31;100674.50;4995953;28;19992;-66
2021/08/17 10:47:01;;;;;;;;;;;19.40;81.90;;;17.26;81.66;100665.19;4995138;28;19930;-63
2021/08/17 10:49:43;;;;;;;;;;;19.30;83.10;;;17.28;79.85;100674.91;4997348;28;20405;-63
2021/08/17 10:52:12;;;;;;;;;;;19.30;83.20;;;17.30;80.45;100677.44;4998185;28;19930;-65
2021/08/17 10:54:41;;;;;;;;;;;19.30;82.80;;;17.33;81.35;100677.81;4999488;28;19953;-63
2021/08/17 10:57:19;;;;;;;;;;;19.20;83.60;;;17.35;81.38;100680.34;4998441;28;19932;-65
2021/08/17 10:59:48;;;;;;;;;;;19.20;83.80;;;17.37;80.31;100672.72;4996335;28;20305;-64
2021/08/17 11:02:20;;;;;;;;;;;19.20;83.40;;;17.38;81.44;100664.25;4999107;28;19929;-65
2021/08/17 11:04:48;;;;;;;;;;;19.20;83.90;;;17.38;81.38;100668.88;4981771;28;19975;-64
2021/08/17 11:07:39;;;;;;;;;;;19.00;84.50;;;17.32;81.01;100667.88;5000544;28;19991;-64
2021/08/17 11:10:10;;;;;;;;;;;19.00;84.10;;;17.31;80.64;100662.63;4998922;28;19951;-64
2021/08/17 11:12:39;;;;;;;;;;;18.90;85.00;;;17.23;80.25;100661.00;4998669;28;19933;-65
2021/08/17 11:15:08;;;;;;;;;;;18.80;84.50;;;17.27;80.81;100658.63;5000817;28;19934;-65